Sharon, WI (53585)

5:47 PM CST on February 06, 2016 (GMT -0600)
Suburban Capron | | Change Station
CLOSE
Current Station
Personal Weather Station
Location: Capron, IL
Elevation: 925 ft
Nearby Weather Stations

Elev 925 ft 42.40 °N, 88.75 °W | Updated 4 seconds ago

Overcast
Overcast
33.4 °F
Feels Like 33 °F
N
2.0
Wind Variable Wind from WSW
Gusts 2.0 mph

Today
High -- | Low -- °F
--% Chance of Precip.
Yesterday
High -- | Low -- °F
Precip. -- in
Pressure 30.12 in
Visibility 10.0 miles
Clouds Clear
Windchill 33 °F
Dew Point 29 °F
Humidity 84%
Rainfall 0.00 in
Snow Depth Not available.
7:03 AM 5:14 PM
Waning Crescent, 3% visible
METAR KJVL 062245Z 29004KT 10SM SKC 02/M02 A3012
Pressure 30.12 in
Visibility 10.0 miles
Clouds Clear
Windchill 33 °F
Dew Point 29 °F
Humidity 84%
Rainfall 0.00 in
Snow Depth Not available.
7:03 AM 5:14 PM
Waning Crescent, 3% visible
METAR KJVL 062245Z 29004KT 10SM SKC 02/M02 A3012

10-Day Weather Forecast

Almanac

Astronomy

Feb. 06, 2016 Rise Set
Actual Time
Civil Twilight
Nautical Twilight
Astronomical Twilight
Moon
Length of Visible Light
Length of Day
Tomorrow will be .
, % of the Moon is Illuminated

Today's Extremes

State Highs State Lows

Community

WunderPhotos

Upload Photos

1,891,098 photos uploaded!

WunderBlog® & News

Nearby

Air Quality

  Air Quality AQ Index Pollutant
Not available.

Snow Depth

Station Depth Elevation

Earthquake Activity

City Distance Mag. Time & Date
Minimum magnitude displayed is 2.5.

Coastal Water Temperatures

Place Temperature

Stations

Nearby Weather Stations

Station Location Temp. Windchill Dew Point Humidity Wind Precip. Elev Updated Type
                   

Watches & Warnings

There are currently no watches in effect.